Time;durP1;ratioP1;P1;durP2;ratioP2;P2;SDS_P1;SDS_P2;PMS_P1;PMS_P2;Temp;Humidity;BMP_temperature;BMP_pressure;BME280_temperature;BME280_humidity;BME280_pressure;Samples;Min_cycle;Max_cycle;Signal;HPM_P1;HPM_P2
2022/04/14 00:00:21;;;;;;;10.85;3.78;;;10.80;94.90;;;;;;5027163;28;20026;-67
2022/04/14 00:02:46;;;;;;;12.90;3.67;;;10.80;94.90;;;;;;5021960;28;20029;-68
2022/04/14 00:05:12;;;;;;;21.52;4.10;;;10.70;95.10;;;;;;5023359;28;20335;-68
2022/04/14 00:07:39;;;;;;;9.95;3.75;;;10.60;95.20;;;;;;5026084;28;20030;-68
2022/04/14 00:10:05;;;;;;;10.40;3.47;;;10.60;95.30;;;;;;5025698;28;20392;-68
2022/04/14 00:12:31;;;;;;;13.98;4.10;;;10.60;95.30;;;;;;5022409;28;20024;-68
2022/04/14 00:14:57;;;;;;;13.13;4.10;;;10.60;95.20;;;;;;5017302;28;20041;-67
2022/04/14 00:17:23;;;;;;;13.00;3.70;;;10.60;95.30;;;;;;5033350;28;20119;-68
2022/04/14 00:19:49;;;;;;;14.38;4.07;;;10.50;95.40;;;;;;5035668;28;20415;-68
2022/04/14 00:22:18;;;;;;;15.32;4.15;;;10.50;95.40;;;;;;5027145;28;20034;-67
2022/04/14 00:24:43;;;;;;;13.98;3.75;;;10.60;95.30;;;;;;5029507;28;20049;-67
2022/04/14 00:27:09;;;;;;;11.80;3.95;;;10.60;95.20;;;;;;5032372;28;20124;-68
2022/04/14 00:29:38;;;;;;;10.95;4.10;;;10.60;95.20;;;;;;5035500;28;20033;-68
2022/04/14 00:32:04;;;;;;;12.70;3.90;;;10.50;95.30;;;;;;5033950;28;20417;-68
2022/04/14 00:34:29;;;;;;;10.32;3.85;;;10.50;95.40;;;;;;5034567;28;20040;-68
2022/04/14 00:36:55;;;;;;;11.35;4.45;;;10.40;95.50;;;;;;5024503;28;20030;-67
2022/04/14 00:39:20;;;;;;;11.93;3.70;;;10.40;95.60;;;;;;5018682;28;20407;-68
2022/04/14 00:41:46;;;;;;;11.93;3.75;;;10.40;95.60;;;;;;5020810;28;20030;-68
2022/04/14 00:44:12;;;;;;;8.50;4.00;;;10.40;95.60;;;;;;5021260;28;20045;-68
2022/04/14 00:46:37;;;;;;;8.73;3.92;;;10.40;95.60;;;;;;5019523;28;20092;-68
2022/04/14 00:49:03;;;;;;;14.23;3.80;;;10.40;95.60;;;;;;5026285;28;20021;-68
2022/04/14 00:51:29;;;;;;;13.65;4.05;;;10.40;95.50;;;;;;5031045;28;20029;-68
2022/04/14 00:53:54;;;;;;;11.32;4.25;;;10.40;95.40;;;;;;5018313;28;20049;-68
2022/04/14 00:56:20;;;;;;;8.88;4.05;;;10.50;95.20;;;;;;5036785;28;20330;-68
2022/04/14 00:58:46;;;;;;;12.85;4.20;;;10.40;95.30;;;;;;5033562;28;20060;-68
2022/04/14 01:01:15;;;;;;;16.27;4.75;;;10.40;95.60;;;;;;5021099;28;20445;-68
2022/04/14 01:03:45;;;;;;;16.50;4.95;;;10.30;95.70;;;;;;5032326;28;20300;-68
2022/04/14 01:06:19;;;;;;;12.10;4.45;;;10.30;95.90;;;;;;5031646;28;20029;-68
2022/04/14 01:09:16;;;;;;;17.95;4.30;;;10.40;95.60;;;;;;5016449;28;20681;-68
2022/04/14 01:11:31;;;;;;;10.85;4.00;;;10.50;95.20;;;;;;5029877;28;20034;-68
2022/04/14 01:13:57;;;;;;;13.60;4.72;;;10.40;95.20;;;;;;5024582;28;20065;-68
2022/04/14 01:16:26;;;;;;;11.40;3.90;;;10.40;95.50;;;;;;5033245;28;20191;-68
2022/04/14 01:18:52;;;;;;;12.55;3.95;;;10.30;95.90;;;;;;5022358;28;20029;-68
2022/04/14 01:21:20;;;;;;;8.15;3.70;;;10.10;96.20;;;;;;5021988;28;20026;-68
2022/04/14 01:23:46;;;;;;;10.88;3.30;;;9.90;96.30;;;;;;5031149;28;20112;-67
2022/04/14 01:26:12;;;;;;;12.13;4.25;;;9.70;96.40;;;;;;5022471;28;20184;-67
2022/04/14 01:28:37;;;;;;;9.55;3.70;;;9.60;96.60;;;;;;5027923;28;20022;-67
2022/04/14 01:31:03;;;;;;;14.00;4.35;;;9.60;96.90;;;;;;5018144;28;20028;-67
2022/04/14 01:33:29;;;;;;;12.50;4.15;;;9.60;97.00;;;;;;5024237;28;20111;-70
2022/04/14 01:35:55;;;;;;;10.02;3.75;;;9.70;97.10;;;;;;5028726;28;20022;-69
2022/04/14 01:38:20;;;;;;;6.90;3.65;;;9.70;97.10;;;;;;5029545;28;20112;-68
2022/04/14 01:40:46;;;;;;;9.27;3.70;;;9.70;97.00;;;;;;5030955;28;20029;-68
2022/04/14 01:43:12;;;;;;;10.82;3.92;;;9.70;97.10;;;;;;5016200;28;20472;-68
2022/04/14 01:45:37;;;;;;;13.77;4.07;;;9.70;97.10;;;;;;5021570;28;20426;-68
2022/04/14 01:48:03;;;;;;;9.85;3.90;;;9.80;97.20;;;;;;5028715;28;20323;-68
2022/04/14 01:50:29;;;;;;;12.27;4.30;;;9.80;97.20;;;;;;5020213;28;20033;-68
2022/04/14 01:52:55;;;;;;;11.45;4.15;;;9.90;97.00;;;;;;5020459;28;20026;-68
2022/04/14 01:55:20;;;;;;;12.55;3.97;;;10.00;96.90;;;;;;5018814;28;20095;-68
2022/04/14 01:57:46;;;;;;;9.82;3.88;;;9.90;96.90;;;;;;5017560;28;20034;-68
2022/04/14 02:00:14;;;;;;;14.30;3.78;;;9.80;96.90;;;;;;5028675;28;20457;-68
2022/04/14 02:02:40;;;;;;;10.80;4.10;;;9.70;97.00;;;;;;5020153;28;20116;-68
2022/04/14 02:05:06;;;;;;;14.02;4.50;;;9.60;97.10;;;;;;5033289;28;20021;-68
2022/04/14 02:07:32;;;;;;;8.18;3.78;;;9.60;97.10;;;;;;5023739;28;20456;-68
2022/04/14 02:09:58;;;;;;;10.85;4.05;;;9.60;97.20;;;;;;5030858;28;20046;-68
2022/04/14 02:12:26;;;;;;;11.50;3.95;;;9.60;97.10;;;;;;5030925;28;20026;-68
2022/04/14 02:14:53;;;;;;;13.20;4.30;;;9.70;97.30;;;;;;5027816;28;20080;-68
2022/04/14 02:17:19;;;;;;;14.00;4.55;;;9.70;97.10;;;;;;5024581;28;20030;-68
2022/04/14 02:19:47;;;;;;;13.82;3.90;;;9.90;97.00;;;;;;5028284;28;20049;-68
2022/04/14 02:22:13;;;;;;;12.90;4.38;;;10.00;96.60;;;;;;5031573;28;20036;-68
2022/04/14 02:24:38;;;;;;;10.02;4.35;;;10.00;96.70;;;;;;5028897;28;20025;-67
2022/04/14 02:27:04;;;;;;;10.98;4.18;;;9.80;96.70;;;;;;5023857;28;20034;-68
2022/04/14 02:29:30;;;;;;;11.80;3.95;;;9.60;96.70;;;;;;5027557;28;20037;-68
2022/04/14 02:31:57;;;;;;;10.50;3.65;;;9.50;97.00;;;;;;5030028;28;20044;-68
2022/04/14 02:34:26;;;;;;;12.48;4.00;;;9.60;97.10;;;;;;5018713;28;20326;-68
2022/04/14 02:36:51;;;;;;;9.30;4.53;;;9.40;97.20;;;;;;5021155;28;20060;-68
2022/04/14 02:39:19;;;;;;;12.38;4.18;;;9.30;97.20;;;;;;5021311;28;20056;-67
2022/04/14 02:41:45;;;;;;;11.63;4.13;;;9.30;97.30;;;;;;5026561;28;20029;-67
2022/04/14 02:44:11;;;;;;;12.40;4.28;;;9.30;97.30;;;;;;5031111;28;20028;-67
2022/04/14 02:46:37;;;;;;;11.43;4.55;;;9.30;97.40;;;;;;5019908;28;20026;-68
2022/04/14 02:49:02;;;;;;;15.63;4.43;;;9.30;97.50;;;;;;5024397;28;20427;-67
2022/04/14 02:51:28;;;;;;;17.27;7.15;;;9.20;97.40;;;;;;5025245;28;20033;-68
2022/04/14 02:53:54;;;;;;;39.15;18.77;;;9.20;97.40;;;;;;5023263;28;20311;-68
2022/04/14 02:56:19;;;;;;;34.38;18.38;;;9.20;97.40;;;;;;5035216;28;20025;-67
2022/04/14 02:58:46;;;;;;;24.33;11.13;;;9.20;97.40;;;;;;5026056;28;20510;-67
2022/04/14 03:01:12;;;;;;;13.05;7.40;;;9.20;97.40;;;;;;5030637;28;20080;-68
2022/04/14 03:03:37;;;;;;;13.77;5.28;;;9.20;97.50;;;;;;5030071;28;20056;-68
2022/04/14 03:06:03;;;;;;;12.27;4.90;;;9.30;97.50;;;;;;5033642;28;20044;-67
2022/04/14 03:08:29;;;;;;;11.85;5.15;;;9.30;97.60;;;;;;5030189;28;20026;-68
2022/04/14 03:10:57;;;;;;;11.48;4.30;;;9.40;97.50;;;;;;5026305;28;20022;-68
2022/04/14 03:13:24;;;;;;;14.00;4.43;;;9.40;97.60;;;;;;5022988;28;20025;-68
2022/04/14 03:15:52;;;;;;;9.98;4.70;;;9.30;97.40;;;;;;5026962;28;20415;-68
2022/04/14 03:18:21;;;;;;;12.10;4.53;;;9.30;97.40;;;;;;5026217;28;20033;-68
2022/04/14 03:20:46;;;;;;;11.40;4.38;;;9.30;97.50;;;;;;5034013;28;20022;-67
2022/04/14 03:23:12;;;;;;;16.55;5.25;;;9.30;97.50;;;;;;5031905;28;20064;-68
2022/04/14 03:25:39;;;;;;;18.90;5.70;;;9.20;97.50;;;;;;5030664;28;20441;-68
2022/04/14 03:28:04;;;;;;;12.15;5.47;;;9.10;97.30;;;;;;5033137;28;20389;-68
2022/04/14 03:30:30;;;;;;;14.35;6.57;;;9.00;97.30;;;;;;5019022;28;20130;-68
2022/04/14 03:32:56;;;;;;;17.60;6.22;;;8.90;97.10;;;;;;5023108;28;20022;-68
2022/04/14 03:35:21;;;;;;;17.45;6.50;;;8.90;97.20;;;;;;5021202;28;20026;-68
2022/04/14 03:37:47;;;;;;;12.85;6.43;;;8.90;97.30;;;;;;5020850;28;20464;-68
2022/04/14 03:40:13;;;;;;;13.30;6.40;;;8.90;97.30;;;;;;5026316;28;20040;-68
2022/04/14 03:42:39;;;;;;;13.70;6.47;;;8.80;97.20;;;;;;5025211;28;20021;-68
2022/04/14 03:45:06;;;;;;;14.70;6.68;;;8.80;97.20;;;;;;5035125;28;20076;-68
2022/04/14 03:47:32;;;;;;;12.20;6.07;;;8.70;97.10;;;;;;5027049;28;20026;-67
2022/04/14 03:49:58;;;;;;;12.77;5.97;;;8.70;97.00;;;;;;5025101;28;20419;-67
2022/04/14 03:52:23;;;;;;;8.63;5.15;;;8.60;97.10;;;;;;5021712;28;20017;-68
2022/04/14 03:54:49;;;;;;;15.13;6.57;;;8.50;97.10;;;;;;5019511;28;20092;-68
2022/04/14 03:57:14;;;;;;;15.45;6.68;;;8.40;96.90;;;;;;5022155;28;20288;-68
2022/04/14 03:59:40;;;;;;;11.98;6.07;;;8.30;96.80;;;;;;5031558;28;20068;-68
2022/04/14 04:02:06;;;;;;;13.90;6.60;;;8.20;96.50;;;;;;5026444;28;20030;-67
2022/04/14 04:04:32;;;;;;;23.00;7.00;;;8.10;95.80;;;;;;5024017;28;20025;-68
2022/04/14 04:06:58;;;;;;;12.75;5.53;;;8.20;95.90;;;;;;5026373;28;20120;-68
2022/04/14 04:09:26;;;;;;;14.10;5.20;;;8.20;96.40;;;;;;5026571;28;20029;-68
2022/04/14 04:11:55;;;;;;;13.45;5.15;;;8.20;96.50;;;;;;5034091;28;20021;-68
2022/04/14 04:14:21;;;;;;;12.10;5.85;;;8.20;96.10;;;;;;5031736;28;20426;-67
2022/04/14 04:16:47;;;;;;;19.00;6.53;;;8.10;96.20;;;;;;5035069;28;20048;-67
2022/04/14 04:19:16;;;;;;;16.23;7.05;;;8.10;95.50;;;;;;5023451;28;20098;-67
2022/04/14 04:21:41;;;;;;;9.55;5.57;;;8.10;95.90;;;;;;5029644;28;20029;-67
2022/04/14 04:24:08;;;;;;;14.85;5.78;;;8.10;95.70;;;;;;5030577;28;20040;-67
2022/04/14 04:26:34;;;;;;;12.65;5.45;;;8.20;96.10;;;;;;5034623;28;20037;-67
2022/04/14 04:28:59;;;;;;;13.27;5.03;;;8.30;96.40;;;;;;5024754;28;20044;-69
2022/04/14 04:31:25;;;;;;;14.00;5.63;;;8.30;96.60;;;;;;5024234;28;20083;-68
2022/04/14 04:33:51;;;;;;;13.05;4.82;;;8.30;96.20;;;;;;5024174;28;20046;-69
2022/04/14 04:36:20;;;;;;;12.50;5.32;;;8.20;96.00;;;;;;5024418;28;20088;-69
2022/04/14 04:38:46;;;;;;;15.07;5.45;;;8.10;96.00;;;;;;5023963;28;20050;-68
2022/04/14 04:41:11;;;;;;;10.13;5.13;;;8.10;95.50;;;;;;5023247;28;20029;-68
2022/04/14 04:43:37;;;;;;;13.00;5.40;;;8.10;95.80;;;;;;5018687;28;20106;-68
2022/04/14 04:46:03;;;;;;;14.15;5.13;;;8.20;95.70;;;;;;5021090;28;20072;-67
2022/04/14 04:48:31;;;;;;;15.40;5.93;;;8.20;95.90;;;;;;5025119;28;20071;-68
2022/04/14 04:50:57;;;;;;;12.43;5.43;;;8.20;95.70;;;;;;5030363;28;20037;-68
2022/04/14 04:53:23;;;;;;;13.32;5.63;;;8.20;96.00;;;;;;5031363;28;20037;-68
2022/04/14 04:55:48;;;;;;;16.02;5.50;;;8.20;96.30;;;;;;5022616;28;20021;-68
2022/04/14 04:58:14;;;;;;;12.65;5.60;;;8.30;96.40;;;;;;5027028;28;20045;-68
2022/04/14 05:00:41;;;;;;;10.30;5.57;;;8.30;96.10;;;;;;5030558;28;20479;-68
2022/04/14 05:03:10;;;;;;;14.00;5.97;;;8.40;96.20;;;;;;5028378;28;20061;-67
2022/04/14 05:05:37;;;;;;;12.32;5.20;;;8.50;96.70;;;;;;5021726;28;20322;-67
2022/04/14 05:08:07;;;;;;;10.55;5.53;;;8.50;96.70;;;;;;5023489;28;20013;-68
2022/04/14 05:10:34;;;;;;;13.18;6.97;;;8.50;96.70;;;;;;5032647;28;20083;-68
2022/04/14 05:13:00;;;;;;;14.38;6.20;;;8.50;96.70;;;;;;5022596;28;20022;-68
2022/04/14 05:15:25;;;;;;;14.80;5.75;;;8.50;96.70;;;;;;5027088;28;20029;-68
2022/04/14 05:17:51;;;;;;;11.93;5.97;;;8.60;96.30;;;;;;5021023;28;20292;-67
2022/04/14 05:20:17;;;;;;;14.38;6.47;;;8.80;96.50;;;;;;5027276;28;20370;-68
2022/04/14 05:22:46;;;;;;;20.50;11.55;;;8.90;96.80;;;;;;5027137;28;20041;-67
2022/04/14 05:25:12;;;;;;;14.23;8.05;;;8.90;96.90;;;;;;5027347;28;20449;-68
2022/04/14 05:27:39;;;;;;;18.33;9.30;;;8.80;96.90;;;;;;5032081;28;20029;-68
2022/04/14 05:30:05;;;;;;;19.90;10.70;;;8.90;96.90;;;;;;5022539;28;20101;-68
2022/04/14 05:32:31;;;;;;;20.40;11.82;;;8.90;96.90;;;;;;5028292;28;20108;-68
2022/04/14 05:34:57;;;;;;;17.50;10.90;;;9.00;97.10;;;;;;5018641;28;20340;-68
2022/04/14 05:37:22;;;;;;;19.35;8.10;;;9.10;97.30;;;;;;5031581;28;20034;-67
2022/04/14 05:39:48;;;;;;;13.35;6.75;;;9.20;97.70;;;;;;5028283;28;20323;-68
2022/04/14 05:42:14;;;;;;;13.63;6.95;;;9.40;98.00;;;;;;5032107;28;20041;-68
2022/04/14 05:44:40;;;;;;;14.90;6.78;;;9.50;98.00;;;;;;5026698;28;20027;-68
2022/04/14 05:47:05;;;;;;;14.80;7.47;;;9.60;97.90;;;;;;5028520;28;20532;-68
2022/04/14 05:49:31;;;;;;;12.48;6.63;;;9.70;97.80;;;;;;5032244;28;20100;-68
2022/04/14 05:51:57;;;;;;;14.38;8.27;;;9.90;97.70;;;;;;5027385;28;20033;-68
2022/04/14 05:54:22;;;;;;;13.50;6.68;;;10.10;98.00;;;;;;5030026;28;20029;-68
2022/04/14 05:56:48;;;;;;;14.25;7.68;;;10.20;98.00;;;;;;5029584;28;20418;-67
2022/04/14 05:59:17;;;;;;;18.10;6.97;;;10.30;98.00;;;;;;5027219;28;20088;-68
2022/04/14 06:01:44;;;;;;;14.27;7.53;;;10.30;97.80;;;;;;5036052;28;20021;-68
2022/04/14 06:04:12;;;;;;;13.23;6.88;;;10.40;97.90;;;;;;5031263;28;20330;-67
2022/04/14 06:06:38;;;;;;;15.65;8.27;;;10.50;97.90;;;;;;5030670;28;20448;-68
2022/04/14 06:09:05;;;;;;;14.38;8.20;;;10.60;97.70;;;;;;5032052;28;20047;-67
2022/04/14 06:11:31;;;;;;;14.02;8.27;;;10.80;97.70;;;;;;5028813;28;20045;-68
2022/04/14 06:13:58;;;;;;;15.48;8.27;;;11.00;97.20;;;;;;5027460;28;20074;-68
2022/04/14 06:16:24;;;;;;;15.75;8.18;;;11.20;97.10;;;;;;5033271;28;20030;-68
2022/04/14 06:18:50;;;;;;;22.90;11.07;;;11.40;96.80;;;;;;5021753;28;20457;-66
2022/04/14 06:21:15;;;;;;;25.23;12.57;;;11.70;96.40;;;;;;5024098;28;20041;-68
2022/04/14 06:23:41;;;;;;;23.33;11.48;;;11.90;95.80;;;;;;5029480;28;20079;-68
2022/04/14 06:26:07;;;;;;;21.48;11.02;;;12.10;95.20;;;;;;5034732;28;20104;-68
2022/04/14 06:28:36;;;;;;;18.10;10.07;;;12.30;94.90;;;;;;5029076;28;20029;-68
2022/04/14 06:31:02;;;;;;;21.35;9.30;;;12.50;94.30;;;;;;5025369;28;20369;-68
2022/04/14 06:33:30;;;;;;;14.48;8.38;;;12.60;93.50;;;;;;5033744;28;20718;-68
2022/04/14 06:35:58;;;;;;;19.95;8.85;;;12.70;93.20;;;;;;5027911;28;20370;-67
2022/04/14 06:38:26;;;;;;;17.85;7.32;;;12.80;92.90;;;;;;5021196;28;20025;-68
2022/04/14 06:40:51;;;;;;;15.75;7.72;;;12.80;92.70;;;;;;5024901;28;20079;-67
2022/04/14 06:43:17;;;;;;;16.27;7.53;;;12.80;92.90;;;;;;5032452;28;20033;-68
2022/04/14 06:45:43;;;;;;;14.18;8.57;;;12.80;93.10;;;;;;5032647;28;20021;-68
2022/04/14 06:48:09;;;;;;;17.35;9.18;;;12.80;93.50;;;;;;5037804;28;20028;-68
2022/04/14 06:50:35;;;;;;;16.77;9.75;;;12.80;93.40;;;;;;5032996;28;20017;-68
2022/04/14 06:53:02;;;;;;;20.35;9.80;;;12.90;93.80;;;;;;5028352;28;20316;-68
2022/04/14 06:55:27;;;;;;;29.48;12.68;;;12.90;93.80;;;;;;5019766;28;20096;-68
2022/04/14 06:57:54;;;;;;;21.30;13.25;;;13.00;94.00;;;;;;5029178;28;20030;-68
2022/04/14 07:00:21;;;;;;;28.77;15.65;;;13.10;94.10;;;;;;5030118;28;20485;-68
2022/04/14 07:02:51;;;;;;;20.33;13.98;;;13.20;94.20;;;;;;5031885;28;20030;-68
2022/04/14 07:05:17;;;;;;;23.55;13.93;;;13.40;93.90;;;;;;5032149;28;20079;-68
2022/04/14 07:07:46;;;;;;;24.15;16.58;;;13.40;94.10;;;;;;5031943;28;20033;-68
2022/04/14 07:10:13;;;;;;;30.23;18.52;;;13.50;93.90;;;;;;5023061;28;20053;-68
2022/04/14 07:12:39;;;;;;;26.38;17.63;;;13.40;94.40;;;;;;5030684;28;20419;-67
2022/04/14 07:15:06;;;;;;;42.05;27.30;;;13.60;94.70;;;;;;5018046;28;20403;-67
2022/04/14 07:17:32;;;;;;;37.28;26.23;;;13.90;94.80;;;;;;5025293;28;20299;-67
2022/04/14 07:19:58;;;;;;;40.75;25.35;;;13.90;94.70;;;;;;5018241;28;20014;-67
2022/04/14 07:22:24;;;;;;;40.30;27.00;;;14.00;94.80;;;;;;5021624;28;20032;-70
2022/04/14 07:24:50;;;;;;;43.83;29.55;;;14.00;94.70;;;;;;5027529;28;20041;-69
2022/04/14 07:27:21;;;;;;;42.90;28.63;;;14.10;94.90;;;;;;5027536;28;20106;-68
2022/04/14 07:29:47;;;;;;;38.70;30.40;;;14.00;95.10;;;;;;5033684;28;20026;-68
2022/04/14 07:32:14;;;;;;;39.40;27.58;;;13.90;95.20;;;;;;5023292;28;20097;-68
2022/04/14 07:34:42;;;;;;;43.72;29.80;;;13.90;95.40;;;;;;5017808;28;20030;-68
2022/04/14 07:37:08;;;;;;;43.47;29.13;;;14.20;95.10;;;;;;5026339;28;20033;-68
2022/04/14 07:39:37;;;;;;;38.63;27.58;;;14.40;94.40;;;;;;5030917;28;20029;-68
2022/04/14 07:42:03;;;;;;;35.85;25.45;;;14.50;94.00;;;;;;5027138;28;20339;-68
2022/04/14 07:44:28;;;;;;;33.60;26.25;;;14.70;94.10;;;;;;5034151;28;20029;-68
2022/04/14 07:46:57;;;;;;;37.90;25.63;;;14.80;93.40;;;;;;5022897;28;20029;-68
2022/04/14 07:49:23;;;;;;;40.00;27.55;;;14.70;93.50;;;;;;5024569;28;20029;-68
2022/04/14 07:51:48;;;;;;;37.92;24.00;;;14.60;93.70;;;;;;5028967;28;20082;-68
2022/04/14 07:54:17;;;;;;;32.08;23.38;;;14.70;94.10;;;;;;5021946;28;20414;-68
2022/04/14 07:56:46;;;;;;;30.58;22.40;;;15.00;93.30;;;;;;5027229;28;20037;-68
2022/04/14 07:59:11;;;;;;;30.55;20.42;;;15.40;91.50;;;;;;5024674;28;20022;-68
2022/04/14 08:01:37;;;;;;;27.35;19.52;;;16.00;90.60;;;;;;5024734;28;20509;-68
2022/04/14 08:04:03;;;;;;;28.88;18.45;;;16.80;88.20;;;;;;5032504;28;20025;-68
2022/04/14 08:06:31;;;;;;;28.33;18.92;;;17.70;85.30;;;;;;5035443;28;20032;-68
2022/04/14 08:09:02;;;;;;;32.53;19.85;;;18.50;83.00;;;;;;5035720;28;20025;-68
2022/04/14 08:11:28;;;;;;;26.98;18.15;;;19.20;80.40;;;;;;5020203;28;20032;-68
2022/04/14 08:13:53;;;;;;;29.33;17.55;;;19.50;79.30;;;;;;5024649;28;20128;-68
2022/04/14 08:16:19;;;;;;;26.38;18.55;;;19.80;78.30;;;;;;5029342;28;20034;-68
2022/04/14 08:18:45;;;;;;;26.77;19.42;;;19.90;77.50;;;;;;5017937;28;20038;-67
2022/04/14 08:21:11;;;;;;;24.55;15.93;;;19.90;77.30;;;;;;5019996;28;20099;-67
2022/04/14 08:23:39;;;;;;;26.50;16.17;;;19.90;76.80;;;;;;5029094;28;20025;-66
2022/04/14 08:26:08;;;;;;;27.25;16.95;;;20.30;76.90;;;;;;5030176;28;20038;-67
2022/04/14 08:28:34;;;;;;;19.88;12.85;;;20.60;75.30;;;;;;5030409;28;20397;-67
2022/04/14 08:31:01;;;;;;;21.80;15.55;;;21.10;73.50;;;;;;5034144;28;20021;-67
2022/04/14 08:33:30;;;;;;;24.40;16.77;;;21.70;72.00;;;;;;5029680;28;20022;-67
2022/04/14 08:35:55;;;;;;;23.05;15.93;;;21.90;71.40;;;;;;5021772;28;20042;-68
2022/04/14 08:38:22;;;;;;;25.00;16.85;;;21.10;73.70;;;;;;5025923;28;20035;-66
2022/04/14 08:40:56;;;;;;;26.23;16.35;;;21.00;73.60;;;;;;5026800;28;20107;-68
2022/04/14 08:43:31;;;;;;;25.33;16.08;;;20.90;73.80;;;;;;5030056;28;20463;-67
2022/04/14 08:45:57;;;;;;;22.90;14.55;;;21.10;74.50;;;;;;5027952;28;20029;-67
2022/04/14 08:48:24;;;;;;;20.40;14.15;;;21.40;73.00;;;;;;5019345;28;20029;-67
2022/04/14 08:50:50;;;;;;;24.42;15.32;;;22.10;71.50;;;;;;5025662;28;20025;-67
2022/04/14 08:53:19;;;;;;;23.65;14.85;;;22.20;70.70;;;;;;5026733;28;20040;-66
2022/04/14 08:55:46;;;;;;;27.50;15.15;;;21.80;70.40;;;;;;5033409;28;20108;-67
2022/04/14 08:58:13;;;;;;;19.67;13.88;;;21.30;71.70;;;;;;5026349;28;20553;-67
2022/04/14 09:00:40;;;;;;;25.63;15.63;;;21.40;71.70;;;;;;5038791;28;20029;-67
2022/04/14 09:03:06;;;;;;;27.23;15.05;;;21.30;71.40;;;;;;5033024;28;20381;-67
2022/04/14 09:05:32;;;;;;;28.02;15.05;;;21.00;72.80;;;;;;5028166;28;20038;-67
2022/04/14 09:07:57;;;;;;;22.23;14.95;;;20.90;73.80;;;;;;5025819;28;20026;-69
2022/04/14 09:10:23;;;;;;;24.80;15.32;;;20.70;73.60;;;;;;5026196;28;20017;-66
2022/04/14 09:12:50;;;;;;;21.90;14.45;;;20.60;74.20;;;;;;5021839;28;20056;-67
2022/04/14 09:15:16;;;;;;;25.80;15.48;;;20.60;75.00;;;;;;5027890;28;20116;-67
2022/04/14 09:17:42;;;;;;;25.33;15.07;;;21.00;73.80;;;;;;5032614;28;20359;-68
2022/04/14 09:20:39;;;;;;;21.42;14.30;;;20.90;73.20;;;;;;5028266;28;20063;-67
2022/04/14 09:23:13;;;;;;;23.02;14.63;;;21.20;74.00;;;;;;5020558;28;20107;-66
2022/04/14 09:25:40;;;;;;;19.10;14.30;;;21.80;71.60;;;;;;5031141;28;20030;-67
2022/04/14 09:28:13;;;;;;;23.17;12.27;;;21.50;72.30;;;;;;5026956;28;20030;-67
2022/04/14 09:30:56;;;;;;;21.40;13.43;;;22.10;69.50;;;;;;5028281;28;20442;-67
2022/04/14 09:33:25;;;;;;;19.50;12.38;;;22.10;69.10;;;;;;5031191;28;20034;-67
2022/04/14 09:36:17;;;;;;;15.80;11.00;;;22.90;67.90;;;;;;5031683;28;20418;-68
2022/04/14 09:38:57;;;;;;;17.55;11.65;;;23.10;66.30;;;;;;5037892;28;20036;-67
2022/04/14 09:41:33;;;;;;;20.35;12.95;;;23.60;65.20;;;;;;5046480;28;20025;-66
2022/04/14 09:44:02;;;;;;;21.73;12.00;;;23.20;66.50;;;;;;5038311;28;20406;-66
2022/04/14 09:46:29;;;;;;;23.02;13.45;;;23.00;67.00;;;;;;5033412;28;20084;-67
2022/04/14 09:49:15;;;;;;;21.65;12.80;;;22.90;67.10;;;;;;5027308;28;20250;-67
2022/04/14 09:51:42;;;;;;;21.25;12.68;;;22.50;68.70;;;;;;5036187;28;20032;-67
2022/04/14 09:54:17;;;;;;;18.95;11.50;;;23.00;67.80;;;;;;5036198;28;20025;-67
2022/04/14 09:56:58;;;;;;;22.27;12.23;;;23.40;66.70;;;;;;5038445;28;20628;-68
2022/04/14 09:59:37;;;;;;;19.15;11.98;;;23.70;66.70;;;;;;5031394;28;20040;-67
2022/04/14 10:02:16;;;;;;;19.17;11.48;;;24.30;64.50;;;;;;5043766;28;20032;-65
2022/04/14 10:04:45;;;;;;;20.58;14.55;;;24.50;64.20;;;;;;5044846;28;20036;-66
2022/04/14 10:07:16;;;;;;;64.97;46.45;;;24.50;64.00;;;;;;5043523;28;20045;-66
2022/04/14 10:09:50;;;;;;;19.65;11.07;;;25.20;63.00;;;;;;5047981;28;20028;-66
2022/04/14 10:12:19;;;;;;;19.23;13.32;;;25.60;62.10;;;;;;5027280;28;20419;-66
2022/04/14 10:15:04;;;;;;;19.92;11.98;;;24.70;62.80;;;;;;5039395;28;20048;-66
2022/04/14 10:17:32;;;;;;;22.50;12.07;;;23.40;65.90;;;;;;5033736;28;20022;-69
2022/04/14 10:19:59;;;;;;;18.80;10.90;;;23.30;67.20;;;;;;5030535;28;20032;-68
2022/04/14 10:22:26;;;;;;;21.40;12.70;;;23.10;67.60;;;;;;5039261;28;20442;-66
2022/04/14 10:24:54;;;;;;;24.35;12.63;;;22.80;66.40;;;;;;5036319;28;20021;-65
2022/04/14 10:27:24;;;;;;;20.65;11.95;;;22.70;67.40;;;;;;5032332;28;20037;-66
2022/04/14 10:29:50;;;;;;;17.52;11.10;;;23.20;67.30;;;;;;5033900;28;20092;-66
2022/04/14 10:32:19;;;;;;;15.77;9.15;;;23.90;65.50;;;;;;5022135;28;20030;-67
2022/04/14 10:34:46;;;;;;;21.40;11.32;;;24.40;64.20;;;;;;5026249;28;20088;-66
2022/04/14 10:37:43;;;;;;;18.00;10.60;;;24.60;62.80;;;;;;5038502;28;20037;-66
2022/04/14 10:40:09;;;;;;;17.10;10.40;;;24.20;63.10;;;;;;5039297;28;20497;-67
2022/04/14 10:42:38;;;;;;;18.42;11.02;;;23.80;64.80;;;;;;5026921;28;20038;-67
2022/04/14 10:45:18;;;;;;;18.38;10.32;;;24.20;63.40;;;;;;5029115;28;20022;-68
2022/04/14 10:47:43;;;;;;;17.95;9.60;;;24.30;61.60;;;;;;5029662;28;20033;-67
2022/04/14 10:50:27;;;;;;;17.25;9.57;;;24.80;62.60;;;;;;5039473;28;20025;-67
2022/04/14 10:53:13;;;;;;;17.15;9.77;;;25.10;61.60;;;;;;5032893;28;20018;-67
2022/04/14 10:55:44;;;;;;;19.17;9.50;;;25.20;62.10;;;;;;5032394;28;20036;-66
2022/04/14 10:58:29;;;;;;;17.50;9.18;;;25.70;60.30;;;;;;5022591;28;20033;-67
2022/04/14 11:00:56;;;;;;;18.23;9.57;;;25.10;61.70;;;;;;5028903;28;20179;-67
2022/04/14 11:03:57;;;;;;;14.27;8.15;;;24.90;61.60;;;;;;5028082;28;20091;-67
2022/04/14 11:06:43;;;;;;;16.20;8.18;;;25.50;59.80;;;;;;5071799;28;20036;-67
2022/04/14 11:09:41;;;;;;;17.92;8.45;;;25.60;60.80;;;;;;5036050;28;20484;-67
2022/04/14 11:12:17;;;;;;;15.52;8.30;;;25.80;60.70;;;;;;5031636;28;20053;-67
2022/04/14 11:15:02;;;;;;;16.67;7.85;;;25.70;60.10;;;;;;5034785;28;20354;-67
2022/04/14 11:17:33;;;;;;;15.50;7.28;;;25.60;61.30;;;;;;5030664;28;20025;-66
2022/04/14 11:20:27;;;;;;;13.60;7.75;;;24.90;62.20;;;;;;5037945;28;20308;-66
2022/04/14 11:23:26;;;;;;;13.75;7.50;;;25.00;59.40;;;;;;5023954;28;20034;-67
2022/04/14 11:26:12;;;;;;;15.07;7.22;;;25.20;61.00;;;;;;5033076;28;20033;-66
2022/04/14 11:28:42;;;;;;;14.02;8.20;;;25.40;60.60;;;;;;5028474;28;20412;-66
2022/04/14 11:31:13;;;;;;;17.30;8.50;;;24.50;62.60;;;;;;5036214;28;20030;-66
2022/04/14 11:33:43;;;;;;;19.63;9.35;;;24.10;62.90;;;;;;5026250;28;20045;-66
2022/04/14 11:36:20;;;;;;;11.85;7.57;;;23.60;63.70;;;;;;5027727;28;20033;-67
2022/04/14 11:39:00;;;;;;;18.50;9.23;;;23.70;65.70;;;;;;5032571;28;20033;-67
2022/04/14 11:41:37;;;;;;;14.20;7.22;;;24.20;63.80;;;;;;5035144;28;20033;-66
2022/04/14 11:44:11;;;;;;;14.68;7.22;;;24.30;62.00;;;;;;5023563;28;20797;-66
2022/04/14 11:46:39;;;;;;;17.25;8.55;;;24.60;62.80;;;;;;5023976;28;20022;-66
2022/04/14 11:49:07;;;;;;;18.98;7.88;;;24.40;62.10;;;;;;5019316;28;20077;-66
2022/04/14 11:51:39;;;;;;;14.88;7.57;;;24.60;62.20;;;;;;5032057;28;20108;-67
2022/04/14 11:54:05;;;;;;;14.27;8.30;;;25.00;62.30;;;;;;5021014;28;20419;-66
2022/04/14 11:56:30;;;;;;;16.65;8.88;;;25.10;61.20;;;;;;5030392;28;20036;-66
2022/04/14 11:59:00;;;;;;;16.83;7.88;;;25.00;61.80;;;;;;5033410;28;20029;-66
2022/04/14 12:01:27;;;;;;;13.65;8.30;;;24.40;63.20;;;;;;5030176;28;20029;-66
2022/04/14 12:03:53;;;;;;;13.30;7.40;;;24.20;64.30;;;;;;5024366;28;20079;-66
2022/04/14 12:06:19;;;;;;;16.05;9.70;;;23.80;64.60;;;;;;5029910;28;20033;-66
2022/04/14 12:08:56;;;;;;;13.30;8.60;;;23.60;64.60;;;;;;5026402;28;20029;-66
2022/04/14 12:11:29;;;;;;;16.73;8.48;;;23.70;65.20;;;;;;5030642;28;20018;-66
2022/04/14 12:13:55;;;;;;;14.75;7.75;;;24.00;63.50;;;;;;5019807;28;20052;-66
2022/04/14 12:16:21;;;;;;;15.43;7.57;;;24.00;64.00;;;;;;5026116;28;20327;-66
2022/04/14 12:18:51;;;;;;;17.80;7.93;;;24.20;64.10;;;;;;5029172;28;20445;-66
2022/04/14 12:21:22;;;;;;;16.92;9.32;;;23.70;64.30;;;;;;5021762;28;20026;-66
2022/04/14 12:23:52;;;;;;;15.05;7.88;;;23.50;64.40;;;;;;5030232;28;20034;-66
2022/04/14 12:26:19;;;;;;;12.20;6.50;;;23.50;65.60;;;;;;5043524;28;20409;-66
2022/04/14 12:28:50;;;;;;;12.55;6.82;;;23.90;65.30;;;;;;5042849;28;20037;-67
2022/04/14 12:31:20;;;;;;;11.73;6.25;;;24.30;63.00;;;;;;5030474;28;20314;-66
2022/04/14 12:33:57;;;;;;;12.50;6.05;;;24.50;62.20;;;;;;5032655;28;20029;-66
2022/04/14 12:36:38;;;;;;;10.20;5.18;;;24.70;61.60;;;;;;5036134;28;20115;-65
2022/04/14 12:39:19;;;;;;;14.77;5.85;;;24.80;62.60;;;;;;5041417;28;20059;-66
2022/04/14 12:41:46;;;;;;;19.75;7.13;;;25.20;63.50;;;;;;5039486;28;20033;-66
2022/04/14 12:44:20;;;;;;;12.02;6.95;;;25.60;60.20;;;;;;5046904;28;20075;-66